Terminal Aerodrome Forecast
Issued by NWS Cleveland, OH

Home | Current Version | Previous Version | Text Only | Print | Product List | Glossary On
Versions: 1 2 3 4 5 6 7 8 9 10 11 12 13 14 15 16 17
000
FTUS41 KCLE 032331
TAFTOL
TAF
KTOL 032331Z 0400/0424 23006KT P6SM VCTS SCT050CB OVC250
      TEMPO 0400/0402 5SM SHRA BR BKN050
     FM040600 12004KT 6SM BR SCT120
      TEMPO 0406/0409 4SM BR
     FM040900 VRB02KT 4SM BR SCT003 BKN250
     FM041300 22005KT P6SM SCT250
     FM041800 23007KT P6SM VCTS BKN045CB=

USA.gov is the U.S. government's official web portal to all federal, state and local government web resources and services.